sensor_id;sensor_type;location;lat;lon;timestamp;temperature;humidity
15676;DHT22;7938;47.666;9.434;2023-05-10T04:01:47;12.30;99.90
15676;DHT22;7938;47.666;9.434;2023-05-10T04:04:14;12.20;99.90
15676;DHT22;7938;47.666;9.434;2023-05-10T04:06:44;12.20;99.90
15676;DHT22;7938;47.666;9.434;2023-05-10T04:09:11;12.20;99.90
15676;DHT22;7938;47.666;9.434;2023-05-10T04:11:39;12.30;99.90
15676;DHT22;7938;47.666;9.434;2023-05-10T04:14:06;12.30;99.90
15676;DHT22;7938;47.666;9.434;2023-05-10T04:16:33;12.40;99.90
15676;DHT22;7938;47.666;9.434;2023-05-10T04:19:01;12.50;99.90
15676;DHT22;7938;47.666;9.434;2023-05-10T04:21:28;12.50;99.90
15676;DHT22;7938;47.666;9.434;2023-05-10T04:23:55;12.50;99.90
15676;DHT22;7938;47.666;9.434;2023-05-10T04:26:22;12.50;99.90
15676;DHT22;7938;47.666;9.434;2023-05-10T04:28:50;12.60;99.90
15676;DHT22;7938;47.666;9.434;2023-05-10T04:31:17;12.60;99.90
15676;DHT22;7938;47.666;9.434;2023-05-10T04:33:44;12.60;99.90
15676;DHT22;7938;47.666;9.434;2023-05-10T04:36:12;12.70;99.90
15676;DHT22;7938;47.666;9.434;2023-05-10T04:38:39;12.70;99.90
15676;DHT22;7938;47.666;9.434;2023-05-10T04:41:06;12.70;99.90
15676;DHT22;7938;47.666;9.434;2023-05-10T04:43:34;12.70;99.90
15676;DHT22;7938;47.666;9.434;2023-05-10T04:46:01;12.80;99.90
15676;DHT22;7938;47.666;9.434;2023-05-10T04:48:28;12.80;99.90
15676;DHT22;7938;47.666;9.434;2023-05-10T04:50:55;12.80;99.90
15676;DHT22;7938;47.666;9.434;2023-05-10T04:53:23;12.80;99.90
15676;DHT22;7938;47.666;9.434;2023-05-10T04:55:50;12.90;99.90
15676;DHT22;7938;47.666;9.434;2023-05-10T04:58:17;12.90;99.90
15676;DHT22;7938;47.666;9.434;2023-05-10T05:00:44;13.00;99.90
15676;DHT22;7938;47.666;9.434;2023-05-10T05:03:11;13.00;99.90
15676;DHT22;7938;47.666;9.434;2023-05-10T05:05:38;13.10;99.90
15676;DHT22;7938;47.666;9.434;2023-05-10T05:08:05;13.00;99.90
15676;DHT22;7938;47.666;9.434;2023-05-10T05:10:33;13.00;99.90
15676;DHT22;7938;47.666;9.434;2023-05-10T05:13:00;13.00;99.90
15676;DHT22;7938;47.666;9.434;2023-05-10T05:15:27;12.90;99.90
15676;DHT22;7938;47.666;9.434;2023-05-10T05:17:54;12.70;99.90
15676;DHT22;7938;47.666;9.434;2023-05-10T05:20:20;12.60;99.90
15676;DHT22;7938;47.666;9.434;2023-05-10T05:22:47;12.60;99.90
15676;DHT22;7938;47.666;9.434;2023-05-10T05:25:15;12.50;99.90
15676;DHT22;7938;47.666;9.434;2023-05-10T05:27:43;12.60;99.90
15676;DHT22;7938;47.666;9.434;2023-05-10T05:30:11;12.50;99.90
15676;DHT22;7938;47.666;9.434;2023-05-10T05:32:38;12.60;99.90
15676;DHT22;7938;47.666;9.434;2023-05-10T05:35:05;12.80;99.90
15676;DHT22;7938;47.666;9.434;2023-05-10T05:37:32;12.90;99.90
15676;DHT22;7938;47.666;9.434;2023-05-10T05:39:59;13.00;99.90
15676;DHT22;7938;47.666;9.434;2023-05-10T05:42:27;13.10;99.90
15676;DHT22;7938;47.666;9.434;2023-05-10T05:44:55;13.20;99.90
15676;DHT22;7938;47.666;9.434;2023-05-10T05:47:22;13.30;99.90
15676;DHT22;7938;47.666;9.434;2023-05-10T05:49:49;13.30;99.90
15676;DHT22;7938;47.666;9.434;2023-05-10T05:52:16;13.30;99.90
15676;DHT22;7938;47.666;9.434;2023-05-10T05:54:43;13.30;99.90
15676;DHT22;7938;47.666;9.434;2023-05-10T05:57:10;13.30;99.90
15676;DHT22;7938;47.666;9.434;2023-05-10T05:59:36;13.30;99.90
15676;DHT22;7938;47.666;9.434;2023-05-10T06:02:09;13.20;99.90
15676;DHT22;7938;47.666;9.434;2023-05-10T06:04:36;13.20;99.90
15676;DHT22;7938;47.666;9.434;2023-05-10T06:07:03;13.30;99.90
15676;DHT22;7938;47.666;9.434;2023-05-10T06:09:30;13.30;99.90
15676;DHT22;7938;47.666;9.434;2023-05-10T06:11:57;13.20;99.90
15676;DHT22;7938;47.666;9.434;2023-05-10T06:14:24;13.20;99.90
15676;DHT22;7938;47.666;9.434;2023-05-10T06:16:51;13.30;99.90
15676;DHT22;7938;47.666;9.434;2023-05-10T06:19:19;13.30;99.90
15676;DHT22;7938;47.666;9.434;2023-05-10T06:21:46;13.10;99.90
15676;DHT22;7938;47.666;9.434;2023-05-10T06:24:13;13.10;99.90
15676;DHT22;7938;47.666;9.434;2023-05-10T06:26:40;13.10;99.90
15676;DHT22;7938;47.666;9.434;2023-05-10T06:29:06;13.10;99.90
15676;DHT22;7938;47.666;9.434;2023-05-10T06:31:33;13.20;99.90
15676;DHT22;7938;47.666;9.434;2023-05-10T06:34:00;13.10;99.90
15676;DHT22;7938;47.666;9.434;2023-05-10T06:36:29;13.10;99.90
15676;DHT22;7938;47.666;9.434;2023-05-10T06:38:56;13.00;99.90
15676;DHT22;7938;47.666;9.434;2023-05-10T06:41:23;13.00;99.90
15676;DHT22;7938;47.666;9.434;2023-05-10T06:43:50;12.90;99.90
15676;DHT22;7938;47.666;9.434;2023-05-10T06:46:17;12.90;99.90
15676;DHT22;7938;47.666;9.434;2023-05-10T06:48:44;12.80;99.90
15676;DHT22;7938;47.666;9.434;2023-05-10T06:51:11;12.60;99.90
15676;DHT22;7938;47.666;9.434;2023-05-10T06:53:39;12.60;99.90
15676;DHT22;7938;47.666;9.434;2023-05-10T06:56:06;13.20;99.90
15676;DHT22;7938;47.666;9.434;2023-05-10T06:58:33;12.50;99.90
15676;DHT22;7938;47.666;9.434;2023-05-10T07:01:03;12.60;99.90
15676;DHT22;7938;47.666;9.434;2023-05-10T07:03:30;12.70;99.90
15676;DHT22;7938;47.666;9.434;2023-05-10T07:06:00;12.90;99.90
15676;DHT22;7938;47.666;9.434;2023-05-10T07:08:29;13.10;99.90
15676;DHT22;7938;47.666;9.434;2023-05-10T07:11:01;13.30;99.90
15676;DHT22;7938;47.666;9.434;2023-05-10T07:13:29;13.30;99.90
15676;DHT22;7938;47.666;9.434;2023-05-10T07:15:56;13.40;99.90
15676;DHT22;7938;47.666;9.434;2023-05-10T07:18:24;13.50;99.90
15676;DHT22;7938;47.666;9.434;2023-05-10T07:20:50;13.50;99.90
15676;DHT22;7938;47.666;9.434;2023-05-10T07:23:17;13.50;99.90
15676;DHT22;7938;47.666;9.434;2023-05-10T07:25:45;13.60;99.90
15676;DHT22;7938;47.666;9.434;2023-05-10T07:28:14;13.60;99.90
15676;DHT22;7938;47.666;9.434;2023-05-10T07:30:42;13.60;99.90
15676;DHT22;7938;47.666;9.434;2023-05-10T07:33:09;13.60;99.90
15676;DHT22;7938;47.666;9.434;2023-05-10T07:35:37;13.60;99.90
15676;DHT22;7938;47.666;9.434;2023-05-10T07:38:04;13.60;99.90
15676;DHT22;7938;47.666;9.434;2023-05-10T07:40:31;13.70;99.90
15676;DHT22;7938;47.666;9.434;2023-05-10T07:42:58;13.70;99.90
15676;DHT22;7938;47.666;9.434;2023-05-10T07:45:28;13.70;99.90
15676;DHT22;7938;47.666;9.434;2023-05-10T07:47:55;13.60;99.90
15676;DHT22;7938;47.666;9.434;2023-05-10T07:50:22;13.80;99.90
15676;DHT22;7938;47.666;9.434;2023-05-10T07:52:49;13.70;99.90
15676;DHT22;7938;47.666;9.434;2023-05-10T07:55:15;13.80;99.90
15676;DHT22;7938;47.666;9.434;2023-05-10T07:57:44;13.90;99.90
15676;DHT22;7938;47.666;9.434;2023-05-10T08:00:13;14.10;99.90
15676;DHT22;7938;47.666;9.434;2023-05-10T08:02:44;14.30;99.90
15676;DHT22;7938;47.666;9.434;2023-05-10T08:05:11;14.50;99.90
15676;DHT22;7938;47.666;9.434;2023-05-10T08:07:38;14.50;99.90
15676;DHT22;7938;47.666;9.434;2023-05-10T08:10:07;14.70;99.90
15676;DHT22;7938;47.666;9.434;2023-05-10T08:12:34;14.80;99.90
15676;DHT22;7938;47.666;9.434;2023-05-10T08:15:01;14.80;99.90
15676;DHT22;7938;47.666;9.434;2023-05-10T08:17:28;14.60;99.90
15676;DHT22;7938;47.666;9.434;2023-05-10T08:19:57;14.60;99.90
15676;DHT22;7938;47.666;9.434;2023-05-10T08:22:24;14.60;99.90
15676;DHT22;7938;47.666;9.434;2023-05-10T08:24:51;14.50;99.90
15676;DHT22;7938;47.666;9.434;2023-05-10T08:27:18;14.60;99.90
15676;DHT22;7938;47.666;9.434;2023-05-10T08:29:45;14.70;99.90
15676;DHT22;7938;47.666;9.434;2023-05-10T08:32:12;14.70;99.90
15676;DHT22;7938;47.666;9.434;2023-05-10T08:34:39;14.80;99.90
15676;DHT22;7938;47.666;9.434;2023-05-10T08:37:07;14.80;99.90
15676;DHT22;7938;47.666;9.434;2023-05-10T08:39:34;14.80;99.90
15676;DHT22;7938;47.666;9.434;2023-05-10T08:42:04;15.00;99.90
15676;DHT22;7938;47.666;9.434;2023-05-10T08:44:32;15.10;99.90
15676;DHT22;7938;47.666;9.434;2023-05-10T08:47:04;15.20;99.90
15676;DHT22;7938;47.666;9.434;2023-05-10T08:49:31;15.20;99.90
15676;DHT22;7938;47.666;9.434;2023-05-10T08:52:02;15.50;99.90
15676;DHT22;7938;47.666;9.434;2023-05-10T08:54:33;15.60;99.90
15676;DHT22;7938;47.666;9.434;2023-05-10T08:57:01;15.50;99.90
15676;DHT22;7938;47.666;9.434;2023-05-10T08:59:28;15.50;99.90
15676;DHT22;7938;47.666;9.434;2023-05-10T09:01:57;15.30;99.90
15676;DHT22;7938;47.666;9.434;2023-05-10T09:04:24;15.40;99.90
15676;DHT22;7938;47.666;9.434;2023-05-10T09:06:52;15.50;99.90
15676;DHT22;7938;47.666;9.434;2023-05-10T09:09:19;15.60;99.90
15676;DHT22;7938;47.666;9.434;2023-05-10T09:11:48;15.80;99.90
15676;DHT22;7938;47.666;9.434;2023-05-10T09:14:15;16.00;99.90
15676;DHT22;7938;47.666;9.434;2023-05-10T09:16:43;16.20;99.90
15676;DHT22;7938;47.666;9.434;2023-05-10T09:19:10;16.10;99.90
15676;DHT22;7938;47.666;9.434;2023-05-10T09:21:37;16.20;99.90
15676;DHT22;7938;47.666;9.434;2023-05-10T09:24:05;16.20;99.90
15676;DHT22;7938;47.666;9.434;2023-05-10T09:26:32;16.40;99.90
15676;DHT22;7938;47.666;9.434;2023-05-10T09:29:03;16.00;99.90
15676;DHT22;7938;47.666;9.434;2023-05-10T09:31:47;16.20;99.90
15676;DHT22;7938;47.666;9.434;2023-05-10T09:34:17;16.20;99.90
15676;DHT22;7938;47.666;9.434;2023-05-10T09:36:54;16.40;99.90
15676;DHT22;7938;47.666;9.434;2023-05-10T09:39:30;16.50;99.90
15676;DHT22;7938;47.666;9.434;2023-05-10T09:41:58;16.60;99.90
15676;DHT22;7938;47.666;9.434;2023-05-10T09:44:27;16.60;99.90
15676;DHT22;7938;47.666;9.434;2023-05-10T09:46:54;16.60;99.90
15676;DHT22;7938;47.666;9.434;2023-05-10T09:49:22;16.60;99.90
15676;DHT22;7938;47.666;9.434;2023-05-10T09:52:00;16.80;99.90
15676;DHT22;7938;47.666;9.434;2023-05-10T09:54:27;16.90;99.90
15676;DHT22;7938;47.666;9.434;2023-05-10T09:56:53;17.10;99.90
15676;DHT22;7938;47.666;9.434;2023-05-10T09:59:20;16.80;99.90
15676;DHT22;7938;47.666;9.434;2023-05-10T10:01:51;17.20;99.90
15676;DHT22;7938;47.666;9.434;2023-05-10T10:04:18;17.20;99.90
15676;DHT22;7938;47.666;9.434;2023-05-10T10:06:46;17.00;99.90
15676;DHT22;7938;47.666;9.434;2023-05-10T10:09:14;16.80;99.90
15676;DHT22;7938;47.666;9.434;2023-05-10T10:11:41;16.60;99.90
15676;DHT22;7938;47.666;9.434;2023-05-10T10:14:08;16.60;99.90
15676;DHT22;7938;47.666;9.434;2023-05-10T10:16:35;16.70;99.90
15676;DHT22;7938;47.666;9.434;2023-05-10T10:19:03;16.50;99.90
15676;DHT22;7938;47.666;9.434;2023-05-10T10:21:31;16.20;99.90
15676;DHT22;7938;47.666;9.434;2023-05-10T10:23:57;16.20;99.90
15676;DHT22;7938;47.666;9.434;2023-05-10T10:26:25;16.20;99.90
15676;DHT22;7938;47.666;9.434;2023-05-10T10:29:07;16.00;99.90
15676;DHT22;7938;47.666;9.434;2023-05-10T10:31:41;16.10;99.90
15676;DHT22;7938;47.666;9.434;2023-05-10T10:34:22;16.10;99.90
15676;DHT22;7938;47.666;9.434;2023-05-10T10:36:51;16.20;99.90
15676;DHT22;7938;47.666;9.434;2023-05-10T10:39:20;16.30;99.90
15676;DHT22;7938;47.666;9.434;2023-05-10T10:41:51;16.40;99.90
15676;DHT22;7938;47.666;9.434;2023-05-10T10:44:26;16.50;99.90
15676;DHT22;7938;47.666;9.434;2023-05-10T10:47:00;16.60;99.90
15676;DHT22;7938;47.666;9.434;2023-05-10T10:49:31;16.70;99.90
15676;DHT22;7938;47.666;9.434;2023-05-10T10:52:24;16.70;99.90
15676;DHT22;7938;47.666;9.434;2023-05-10T10:54:59;16.70;99.90
15676;DHT22;7938;47.666;9.434;2023-05-10T10:57:26;16.60;99.90
15676;DHT22;7938;47.666;9.434;2023-05-10T11:00:23;16.70;99.90
15676;DHT22;7938;47.666;9.434;2023-05-10T11:02:51;16.70;99.90
15676;DHT22;7938;47.666;9.434;2023-05-10T11:05:46;16.70;99.90
15676;DHT22;7938;47.666;9.434;2023-05-10T11:08:25;16.70;99.90
15676;DHT22;7938;47.666;9.434;2023-05-10T11:11:02;17.00;99.90
15676;DHT22;7938;47.666;9.434;2023-05-10T11:13:31;17.00;99.90
15676;DHT22;7938;47.666;9.434;2023-05-10T11:15:59;17.10;99.90
15676;DHT22;7938;47.666;9.434;2023-05-10T11:18:36;17.20;99.90
15676;DHT22;7938;47.666;9.434;2023-05-10T11:21:06;17.10;99.90
15676;DHT22;7938;47.666;9.434;2023-05-10T11:23:48;17.10;99.90
15676;DHT22;7938;47.666;9.434;2023-05-10T11:26:16;17.00;99.90
15676;DHT22;7938;47.666;9.434;2023-05-10T11:28:43;16.90;99.90
15676;DHT22;7938;47.666;9.434;2023-05-10T11:31:13;17.30;99.90
15676;DHT22;7938;47.666;9.434;2023-05-10T11:33:43;17.30;99.90
15676;DHT22;7938;47.666;9.434;2023-05-10T11:36:14;17.10;99.90
15676;DHT22;7938;47.666;9.434;2023-05-10T11:38:41;17.10;99.90
15676;DHT22;7938;47.666;9.434;2023-05-10T11:41:09;16.70;99.90
15676;DHT22;7938;47.666;9.434;2023-05-10T11:43:37;16.80;99.90
15676;DHT22;7938;47.666;9.434;2023-05-10T11:46:05;16.90;99.90
15676;DHT22;7938;47.666;9.434;2023-05-10T11:48:33;16.90;99.90
15676;DHT22;7938;47.666;9.434;2023-05-10T11:51:01;17.10;99.90
15676;DHT22;7938;47.666;9.434;2023-05-10T11:53:31;17.10;99.90
15676;DHT22;7938;47.666;9.434;2023-05-10T11:56:03;16.90;99.90
15676;DHT22;7938;47.666;9.434;2023-05-10T11:58:31;16.90;99.90
15676;DHT22;7938;47.666;9.434;2023-05-10T12:00:58;16.70;99.90
15676;DHT22;7938;47.666;9.434;2023-05-10T12:03:26;16.60;99.90
15676;DHT22;7938;47.666;9.434;2023-05-10T12:05:53;16.80;99.90
15676;DHT22;7938;47.666;9.434;2023-05-10T12:08:22;16.80;99.50
15676;DHT22;7938;47.666;9.434;2023-05-10T12:10:51;16.60;99.90
15676;DHT22;7938;47.666;9.434;2023-05-10T12:13:19;16.50;99.90
15676;DHT22;7938;47.666;9.434;2023-05-10T12:15:46;16.40;99.90
15676;DHT22;7938;47.666;9.434;2023-05-10T12:18:14;16.50;99.90
15676;DHT22;7938;47.666;9.434;2023-05-10T12:20:41;16.40;99.90
15676;DHT22;7938;47.666;9.434;2023-05-10T12:23:09;16.40;99.90
15676;DHT22;7938;47.666;9.434;2023-05-10T12:25:36;16.60;99.90
15676;DHT22;7938;47.666;9.434;2023-05-10T12:28:07;16.50;99.90
15676;DHT22;7938;47.666;9.434;2023-05-10T12:30:35;16.50;99.90
15676;DHT22;7938;47.666;9.434;2023-05-10T12:33:06;16.50;99.90
15676;DHT22;7938;47.666;9.434;2023-05-10T12:35:42;16.70;99.90
15676;DHT22;7938;47.666;9.434;2023-05-10T12:38:27;16.70;99.90
15676;DHT22;7938;47.666;9.434;2023-05-10T12:40:56;16.80;99.90
15676;DHT22;7938;47.666;9.434;2023-05-10T12:43:25;16.70;99.90
15676;DHT22;7938;47.666;9.434;2023-05-10T12:45:52;16.80;99.90
15676;DHT22;7938;47.666;9.434;2023-05-10T12:48:19;16.80;99.90
15676;DHT22;7938;47.666;9.434;2023-05-10T12:50:46;17.00;99.90
15676;DHT22;7938;47.666;9.434;2023-05-10T12:53:14;17.00;99.90
15676;DHT22;7938;47.666;9.434;2023-05-10T12:55:41;16.90;99.70
15676;DHT22;7938;47.666;9.434;2023-05-10T12:58:08;17.00;99.90
15676;DHT22;7938;47.666;9.434;2023-05-10T13:00:36;17.00;99.40
15676;DHT22;7938;47.666;9.434;2023-05-10T13:03:04;17.00;99.50
15676;DHT22;7938;47.666;9.434;2023-05-10T13:05:31;17.10;99.90
15676;DHT22;7938;47.666;9.434;2023-05-10T13:07:58;17.10;99.90
15676;DHT22;7938;47.666;9.434;2023-05-10T13:10:25;17.20;99.90
15676;DHT22;7938;47.666;9.434;2023-05-10T13:12:52;17.20;99.90
15676;DHT22;7938;47.666;9.434;2023-05-10T13:15:19;17.10;99.90
15676;DHT22;7938;47.666;9.434;2023-05-10T13:17:47;17.20;99.90
15676;DHT22;7938;47.666;9.434;2023-05-10T13:20:14;17.20;99.90
15676;DHT22;7938;47.666;9.434;2023-05-10T13:22:44;17.10;99.90
15676;DHT22;7938;47.666;9.434;2023-05-10T13:25:11;16.70;99.90
15676;DHT22;7938;47.666;9.434;2023-05-10T13:27:38;16.50;99.90
15676;DHT22;7938;47.666;9.434;2023-05-10T13:30:06;16.40;99.90
15676;DHT22;7938;47.666;9.434;2023-05-10T13:32:34;16.10;99.90
15676;DHT22;7938;47.666;9.434;2023-05-10T13:35:03;16.00;99.90
15676;DHT22;7938;47.666;9.434;2023-05-10T13:37:31;15.70;99.90
15676;DHT22;7938;47.666;9.434;2023-05-10T13:40:01;15.70;99.90
15676;DHT22;7938;47.666;9.434;2023-05-10T13:42:28;15.50;99.90
15676;DHT22;7938;47.666;9.434;2023-05-10T13:44:55;15.40;99.90
15676;DHT22;7938;47.666;9.434;2023-05-10T13:47:22;15.50;99.90
15676;DHT22;7938;47.666;9.434;2023-05-10T13:49:48;15.50;99.90
15676;DHT22;7938;47.666;9.434;2023-05-10T13:52:17;15.60;99.90
15676;DHT22;7938;47.666;9.434;2023-05-10T13:54:44;15.50;99.90
15676;DHT22;7938;47.666;9.434;2023-05-10T13:57:11;15.50;99.90
15676;DHT22;7938;47.666;9.434;2023-05-10T13:59:39;15.60;99.90
15676;DHT22;7938;47.666;9.434;2023-05-10T14:02:06;15.60;99.90
15676;DHT22;7938;47.666;9.434;2023-05-10T14:04:33;15.50;99.90
15676;DHT22;7938;47.666;9.434;2023-05-10T14:07:01;15.50;99.90
15676;DHT22;7938;47.666;9.434;2023-05-10T14:09:29;15.50;99.90
15676;DHT22;7938;47.666;9.434;2023-05-10T14:11:56;15.60;99.90
15676;DHT22;7938;47.666;9.434;2023-05-10T14:14:23;15.60;99.90
15676;DHT22;7938;47.666;9.434;2023-05-10T14:16:50;15.60;99.90
15676;DHT22;7938;47.666;9.434;2023-05-10T14:19:17;15.80;99.90
15676;DHT22;7938;47.666;9.434;2023-05-10T14:21:44;15.90;99.90
15676;DHT22;7938;47.666;9.434;2023-05-10T14:24:11;16.00;99.90
15676;DHT22;7938;47.666;9.434;2023-05-10T14:26:39;16.00;99.90
15676;DHT22;7938;47.666;9.434;2023-05-10T14:29:06;16.10;99.90
15676;DHT22;7938;47.666;9.434;2023-05-10T14:31:33;16.00;99.90
15676;DHT22;7938;47.666;9.434;2023-05-10T14:34:00;16.00;99.90
15676;DHT22;7938;47.666;9.434;2023-05-10T14:36:28;15.00;99.90
15676;DHT22;7938;47.666;9.434;2023-05-10T14:38:55;15.80;99.90
15676;DHT22;7938;47.666;9.434;2023-05-10T14:41:22;15.60;99.90
15676;DHT22;7938;47.666;9.434;2023-05-10T14:43:51;15.50;99.90
15676;DHT22;7938;47.666;9.434;2023-05-10T14:46:18;15.40;99.90
15676;DHT22;7938;47.666;9.434;2023-05-10T14:48:49;15.40;99.90
15676;DHT22;7938;47.666;9.434;2023-05-10T14:51:16;15.60;99.90
15676;DHT22;7938;47.666;9.434;2023-05-10T14:53:44;15.60;99.90
15676;DHT22;7938;47.666;9.434;2023-05-10T14:56:11;15.70;99.90
15676;DHT22;7938;47.666;9.434;2023-05-10T14:58:38;15.60;99.90
15676;DHT22;7938;47.666;9.434;2023-05-10T15:01:06;15.60;99.90
15676;DHT22;7938;47.666;9.434;2023-05-10T15:03:33;15.60;99.90
15676;DHT22;7938;47.666;9.434;2023-05-10T15:06:00;15.60;99.90
15676;DHT22;7938;47.666;9.434;2023-05-10T15:08:27;15.50;99.90
15676;DHT22;7938;47.666;9.434;2023-05-10T15:10:54;15.40;99.90
15676;DHT22;7938;47.666;9.434;2023-05-10T15:13:21;15.30;99.90
15676;DHT22;7938;47.666;9.434;2023-05-10T15:15:49;15.30;99.90
15676;DHT22;7938;47.666;9.434;2023-05-10T15:18:17;15.10;99.90
15676;DHT22;7938;47.666;9.434;2023-05-10T15:20:44;15.20;99.90
15676;DHT22;7938;47.666;9.434;2023-05-10T15:23:11;15.30;99.90
15676;DHT22;7938;47.666;9.434;2023-05-10T15:25:38;15.20;99.90
15676;DHT22;7938;47.666;9.434;2023-05-10T15:28:05;15.20;99.90
15676;DHT22;7938;47.666;9.434;2023-05-10T15:30:31;15.10;99.90
15676;DHT22;7938;47.666;9.434;2023-05-10T15:32:58;15.10;99.90
15676;DHT22;7938;47.666;9.434;2023-05-10T15:35:27;15.10;99.90
15676;DHT22;7938;47.666;9.434;2023-05-10T15:37:54;15.00;99.90
15676;DHT22;7938;47.666;9.434;2023-05-10T15:40:20;15.00;99.90
15676;DHT22;7938;47.666;9.434;2023-05-10T15:42:48;15.00;99.90
15676;DHT22;7938;47.666;9.434;2023-05-10T15:45:15;15.00;99.90
15676;DHT22;7938;47.666;9.434;2023-05-10T15:47:42;14.90;99.90
15676;DHT22;7938;47.666;9.434;2023-05-10T15:50:10;14.80;99.90
15676;DHT22;7938;47.666;9.434;2023-05-10T15:52:39;14.80;99.90
15676;DHT22;7938;47.666;9.434;2023-05-10T15:55:07;14.80;99.90
15676;DHT22;7938;47.666;9.434;2023-05-10T15:57:37;14.90;99.90
15676;DHT22;7938;47.666;9.434;2023-05-10T16:00:06;14.80;99.90
15676;DHT22;7938;47.666;9.434;2023-05-10T16:02:33;14.80;99.90
15676;DHT22;7938;47.666;9.434;2023-05-10T16:05:00;14.60;99.90
15676;DHT22;7938;47.666;9.434;2023-05-10T16:07:27;14.70;99.90
15676;DHT22;7938;47.666;9.434;2023-05-10T16:09:55;14.70;99.90
15676;DHT22;7938;47.666;9.434;2023-05-10T16:12:22;14.70;99.90
15676;DHT22;7938;47.666;9.434;2023-05-10T16:14:49;14.60;99.90
15676;DHT22;7938;47.666;9.434;2023-05-10T16:17:16;14.60;99.90
15676;DHT22;7938;47.666;9.434;2023-05-10T16:19:44;14.60;99.90
15676;DHT22;7938;47.666;9.434;2023-05-10T16:22:12;14.30;99.90
15676;DHT22;7938;47.666;9.434;2023-05-10T16:24:39;14.20;99.90
15676;DHT22;7938;47.666;9.434;2023-05-10T16:27:08;14.30;99.90
15676;DHT22;7938;47.666;9.434;2023-05-10T16:29:37;14.20;99.90
15676;DHT22;7938;47.666;9.434;2023-05-10T16:32:04;14.20;99.90
15676;DHT22;7938;47.666;9.434;2023-05-10T16:34:31;14.30;99.90
15676;DHT22;7938;47.666;9.434;2023-05-10T16:36:58;14.30;99.90
15676;DHT22;7938;47.666;9.434;2023-05-10T16:39:25;14.30;99.90
15676;DHT22;7938;47.666;9.434;2023-05-10T16:41:52;14.30;99.90
15676;DHT22;7938;47.666;9.434;2023-05-10T16:44:21;14.30;99.90
15676;DHT22;7938;47.666;9.434;2023-05-10T16:46:48;14.10;99.90
15676;DHT22;7938;47.666;9.434;2023-05-10T16:49:15;14.00;99.90
15676;DHT22;7938;47.666;9.434;2023-05-10T16:51:42;14.00;99.90
15676;DHT22;7938;47.666;9.434;2023-05-10T16:54:09;14.10;99.90
15676;DHT22;7938;47.666;9.434;2023-05-10T16:56:36;14.10;99.90
15676;DHT22;7938;47.666;9.434;2023-05-10T16:59:03;14.00;99.90
15676;DHT22;7938;47.666;9.434;2023-05-10T17:01:32;14.00;99.90
15676;DHT22;7938;47.666;9.434;2023-05-10T17:03:59;14.00;99.90
15676;DHT22;7938;47.666;9.434;2023-05-10T17:06:26;14.00;99.90
15676;DHT22;7938;47.666;9.434;2023-05-10T17:08:53;13.90;99.90
15676;DHT22;7938;47.666;9.434;2023-05-10T17:11:20;13.80;99.90
15676;DHT22;7938;47.666;9.434;2023-05-10T17:13:47;13.80;99.90
15676;DHT22;7938;47.666;9.434;2023-05-10T17:16:14;13.80;99.90
15676;DHT22;7938;47.666;9.434;2023-05-10T17:18:42;13.90;99.90
15676;DHT22;7938;47.666;9.434;2023-05-10T17:21:10;13.70;99.90
15676;DHT22;7938;47.666;9.434;2023-05-10T17:23:37;13.70;99.90
15676;DHT22;7938;47.666;9.434;2023-05-10T17:26:04;13.70;99.90
15676;DHT22;7938;47.666;9.434;2023-05-10T17:28:31;13.60;99.90
15676;DHT22;7938;47.666;9.434;2023-05-10T17:30:58;13.40;99.90
15676;DHT22;7938;47.666;9.434;2023-05-10T17:33:25;13.40;99.90
15676;DHT22;7938;47.666;9.434;2023-05-10T17:35:54;13.40;99.90
15676;DHT22;7938;47.666;9.434;2023-05-10T17:38:21;13.40;99.90
15676;DHT22;7938;47.666;9.434;2023-05-10T17:40:48;13.20;99.90
15676;DHT22;7938;47.666;9.434;2023-05-10T17:43:15;13.20;99.90
15676;DHT22;7938;47.666;9.434;2023-05-10T17:45:42;13.30;99.90
15676;DHT22;7938;47.666;9.434;2023-05-10T17:48:11;13.30;99.90
15676;DHT22;7938;47.666;9.434;2023-05-10T17:50:40;13.10;99.90
15676;DHT22;7938;47.666;9.434;2023-05-10T17:53:09;13.20;99.90
15676;DHT22;7938;47.666;9.434;2023-05-10T17:55:38;13.10;99.90
15676;DHT22;7938;47.666;9.434;2023-05-10T17:58:05;13.10;99.90
15676;DHT22;7938;47.666;9.434;2023-05-10T18:00:33;13.70;99.90
15676;DHT22;7938;47.666;9.434;2023-05-10T18:03:01;13.10;99.90
15676;DHT22;7938;47.666;9.434;2023-05-10T18:05:28;13.10;99.90
15676;DHT22;7938;47.666;9.434;2023-05-10T18:07:55;13.00;99.90
15676;DHT22;7938;47.666;9.434;2023-05-10T18:10:24;13.00;99.90
15676;DHT22;7938;47.666;9.434;2023-05-10T18:12:51;13.00;99.90
15676;DHT22;7938;47.666;9.434;2023-05-10T18:15:17;13.00;99.90
15676;DHT22;7938;47.666;9.434;2023-05-10T18:17:44;12.90;99.90
15676;DHT22;7938;47.666;9.434;2023-05-10T18:20:11;13.00;99.90
15676;DHT22;7938;47.666;9.434;2023-05-10T18:22:38;13.00;99.90
15676;DHT22;7938;47.666;9.434;2023-05-10T18:25:06;13.00;99.90
15676;DHT22;7938;47.666;9.434;2023-05-10T18:27:34;12.90;99.90
15676;DHT22;7938;47.666;9.434;2023-05-10T18:30:01;13.00;99.90
15676;DHT22;7938;47.666;9.434;2023-05-10T18:32:29;12.90;99.90
15676;DHT22;7938;47.666;9.434;2023-05-10T18:34:56;12.80;99.90
15676;DHT22;7938;47.666;9.434;2023-05-10T18:37:23;12.80;99.90
15676;DHT22;7938;47.666;9.434;2023-05-10T18:39:50;12.80;99.90
15676;DHT22;7938;47.666;9.434;2023-05-10T18:42:18;12.70;99.90
15676;DHT22;7938;47.666;9.434;2023-05-10T18:44:47;12.60;99.90
15676;DHT22;7938;47.666;9.434;2023-05-10T18:47:14;12.60;99.90
15676;DHT22;7938;47.666;9.434;2023-05-10T18:49:41;12.50;99.90
15676;DHT22;7938;47.666;9.434;2023-05-10T18:52:09;12.40;99.90
15676;DHT22;7938;47.666;9.434;2023-05-10T18:54:36;12.40;99.90
15676;DHT22;7938;47.666;9.434;2023-05-10T18:57:03;12.30;99.90
15676;DHT22;7938;47.666;9.434;2023-05-10T18:59:30;12.40;99.90
15676;DHT22;7938;47.666;9.434;2023-05-10T19:01:59;12.30;99.90
15676;DHT22;7938;47.666;9.434;2023-05-10T19:04:26;12.20;99.90
15676;DHT22;7938;47.666;9.434;2023-05-10T19:06:53;12.20;99.90
15676;DHT22;7938;47.666;9.434;2023-05-10T19:09:20;12.10;99.90
15676;DHT22;7938;47.666;9.434;2023-05-10T19:11:47;12.10;99.90
15676;DHT22;7938;47.666;9.434;2023-05-10T19:14:14;12.10;99.90
15676;DHT22;7938;47.666;9.434;2023-05-10T19:16:41;12.10;99.90
15676;DHT22;7938;47.666;9.434;2023-05-10T19:19:09;12.10;99.90
15676;DHT22;7938;47.666;9.434;2023-05-10T19:21:36;12.00;99.90
15676;DHT22;7938;47.666;9.434;2023-05-10T19:24:04;12.00;99.90
15676;DHT22;7938;47.666;9.434;2023-05-10T19:26:31;11.90;99.90
15676;DHT22;7938;47.666;9.434;2023-05-10T19:28:58;11.90;99.90
15676;DHT22;7938;47.666;9.434;2023-05-10T19:31:25;11.90;99.90
15676;DHT22;7938;47.666;9.434;2023-05-10T19:33:52;11.90;99.90
15676;DHT22;7938;47.666;9.434;2023-05-10T19:36:20;11.90;99.90
15676;DHT22;7938;47.666;9.434;2023-05-10T19:38:47;11.80;99.90
15676;DHT22;7938;47.666;9.434;2023-05-10T19:41:14;11.70;99.90
15676;DHT22;7938;47.666;9.434;2023-05-10T19:43:41;11.70;99.90
15676;DHT22;7938;47.666;9.434;2023-05-10T19:46:08;11.80;99.90
15676;DHT22;7938;47.666;9.434;2023-05-10T19:48:35;11.80;99.90
15676;DHT22;7938;47.666;9.434;2023-05-10T19:51:04;11.80;99.90